sensor_id;sensor_type;location;lat;lon;timestamp;P1;durP1;ratioP1;P2;durP2;ratioP2
23594;SDS011;11975;47.674;9.472;2023-02-28T04:08:32;1999.90;;;999.90;;
23594;SDS011;11975;47.674;9.472;2023-02-28T04:11:06;1999.90;;;999.90;;
23594;SDS011;11975;47.674;9.472;2023-02-28T04:13:42;1999.90;;;999.90;;
23594;SDS011;11975;47.674;9.472;2023-02-28T04:16:09;1343.90;;;676.63;;
23594;SDS011;11975;47.674;9.472;2023-02-28T04:18:38;32.17;;;30.37;;
23594;SDS011;11975;47.674;9.472;2023-02-28T04:21:05;32.47;;;30.52;;
23594;SDS011;11975;47.674;9.472;2023-02-28T04:23:32;30.20;;;28.50;;
23594;SDS011;11975;47.674;9.472;2023-02-28T04:25:58;28.70;;;27.10;;
23594;SDS011;11975;47.674;9.472;2023-02-28T04:28:24;28.87;;;27.27;;
23594;SDS011;11975;47.674;9.472;2023-02-28T04:30:56;29.37;;;27.67;;
23594;SDS011;11975;47.674;9.472;2023-02-28T04:33:23;28.73;;;27.00;;
23594;SDS011;11975;47.674;9.472;2023-02-28T04:35:59;28.37;;;26.77;;
23594;SDS011;11975;47.674;9.472;2023-02-28T04:38:34;27.10;;;25.60;;
23594;SDS011;11975;47.674;9.472;2023-02-28T04:41:00;28.50;;;26.90;;
23594;SDS011;11975;47.674;9.472;2023-02-28T04:43:26;27.60;;;26.10;;
23594;SDS011;11975;47.674;9.472;2023-02-28T04:45:53;28.88;;;27.27;;
23594;SDS011;11975;47.674;9.472;2023-02-28T04:48:22;28.23;;;26.43;;
23594;SDS011;11975;47.674;9.472;2023-02-28T04:50:53;27.33;;;25.83;;
23594;SDS011;11975;47.674;9.472;2023-02-28T04:53:19;27.47;;;25.97;;
23594;SDS011;11975;47.674;9.472;2023-02-28T04:55:45;28.57;;;26.97;;
23594;SDS011;11975;47.674;9.472;2023-02-28T04:58:12;27.85;;;26.25;;
23594;SDS011;11975;47.674;9.472;2023-02-28T05:00:38;28.77;;;26.90;;
23594;SDS011;11975;47.674;9.472;2023-02-28T05:03:04;26.85;;;25.35;;
23594;SDS011;11975;47.674;9.472;2023-02-28T05:05:30;30.27;;;28.47;;
23594;SDS011;11975;47.674;9.472;2023-02-28T05:07:56;27.83;;;26.20;;
23594;SDS011;11975;47.674;9.472;2023-02-28T05:10:22;27.00;;;25.50;;
23594;SDS011;11975;47.674;9.472;2023-02-28T05:12:48;27.70;;;26.20;;
23594;SDS011;11975;47.674;9.472;2023-02-28T05:15:15;27.50;;;26.00;;
23594;SDS011;11975;47.674;9.472;2023-02-28T05:17:42;28.27;;;26.67;;
23594;SDS011;11975;47.674;9.472;2023-02-28T05:20:08;27.30;;;25.70;;
23594;SDS011;11975;47.674;9.472;2023-02-28T05:22:36;26.97;;;25.47;;
23594;SDS011;11975;47.674;9.472;2023-02-28T05:25:03;28.15;;;26.55;;
23594;SDS011;11975;47.674;9.472;2023-02-28T05:29:56;27.87;;;26.27;;
23594;SDS011;11975;47.674;9.472;2023-02-28T05:32:22;27.63;;;26.02;;
23594;SDS011;11975;47.674;9.472;2023-02-28T05:34:48;27.38;;;25.77;;
23594;SDS011;11975;47.674;9.472;2023-02-28T05:37:14;27.67;;;26.07;;
23594;SDS011;11975;47.674;9.472;2023-02-28T05:39:41;28.10;;;26.50;;
23594;SDS011;11975;47.674;9.472;2023-02-28T05:42:08;27.00;;;25.50;;
23594;SDS011;11975;47.674;9.472;2023-02-28T05:44:35;29.40;;;27.70;;
23594;SDS011;11975;47.674;9.472;2023-02-28T05:47:01;28.33;;;26.73;;
23594;SDS011;11975;47.674;9.472;2023-02-28T05:49:27;27.23;;;25.73;;
23594;SDS011;11975;47.674;9.472;2023-02-28T05:51:53;27.67;;;26.08;;
23594;SDS011;11975;47.674;9.472;2023-02-28T05:54:19;27.40;;;25.90;;
23594;SDS011;11975;47.674;9.472;2023-02-28T05:56:45;28.63;;;27.02;;
23594;SDS011;11975;47.674;9.472;2023-02-28T05:59:11;27.65;;;26.13;;
23594;SDS011;11975;47.674;9.472;2023-02-28T06:01:40;27.05;;;25.55;;
23594;SDS011;11975;47.674;9.472;2023-02-28T06:04:07;27.52;;;26.02;;
23594;SDS011;11975;47.674;9.472;2023-02-28T17:08:33;31.27;;;29.48;;
23594;SDS011;11975;47.674;9.472;2023-02-28T17:10:59;29.88;;;28.13;;
23594;SDS011;11975;47.674;9.472;2023-02-28T17:13:25;29.60;;;27.90;;
23594;SDS011;11975;47.674;9.472;2023-02-28T17:15:51;30.35;;;28.58;;
23594;SDS011;11975;47.674;9.472;2023-02-28T17:18:17;28.80;;;27.10;;
23594;SDS011;11975;47.674;9.472;2023-02-28T17:20:47;31.02;;;28.90;;
23594;SDS011;11975;47.674;9.472;2023-02-28T17:23:13;31.98;;;29.88;;
23594;SDS011;11975;47.674;9.472;2023-02-28T17:25:39;28.67;;;27.08;;
23594;SDS011;11975;47.674;9.472;2023-02-28T17:28:05;29.33;;;27.50;;
23594;SDS011;11975;47.674;9.472;2023-02-28T17:30:32;30.70;;;28.33;;
23594;SDS011;11975;47.674;9.472;2023-02-28T17:32:59;27.95;;;26.27;;
23594;SDS011;11975;47.674;9.472;2023-02-28T17:35:25;28.75;;;27.08;;
23594;SDS011;11975;47.674;9.472;2023-02-28T17:37:52;30.23;;;28.42;;
23594;SDS011;11975;47.674;9.472;2023-02-28T17:40:19;27.83;;;25.85;;
23594;SDS011;11975;47.674;9.472;2023-02-28T17:42:47;27.77;;;26.17;;
23594;SDS011;11975;47.674;9.472;2023-02-28T17:45:14;28.55;;;26.92;;
23594;SDS011;11975;47.674;9.472;2023-02-28T17:47:40;30.67;;;28.77;;
23594;SDS011;11975;47.674;9.472;2023-02-28T17:50:17;28.50;;;26.70;;
23594;SDS011;11975;47.674;9.472;2023-02-28T17:52:44;28.77;;;27.15;;
23594;SDS011;11975;47.674;9.472;2023-02-28T17:55:10;27.48;;;25.88;;
23594;SDS011;11975;47.674;9.472;2023-02-28T17:57:37;30.05;;;28.25;;
23594;SDS011;11975;47.674;9.472;2023-02-28T18:00:03;29.40;;;27.70;;
23594;SDS011;11975;47.674;9.472;2023-02-28T18:02:32;27.60;;;26.00;;
23594;SDS011;11975;47.674;9.472;2023-02-28T18:04:58;28.73;;;26.70;;
23594;SDS011;11975;47.674;9.472;2023-02-28T18:07:24;28.55;;;26.63;;
23594;SDS011;11975;47.674;9.472;2023-02-28T18:09:50;29.75;;;27.90;;
23594;SDS011;11975;47.674;9.472;2023-02-28T18:12:16;28.17;;;26.58;;
23594;SDS011;11975;47.674;9.472;2023-02-28T18:14:42;27.25;;;25.65;;
23594;SDS011;11975;47.674;9.472;2023-02-28T18:17:09;29.58;;;27.77;;
23594;SDS011;11975;47.674;9.472;2023-02-28T18:19:35;29.67;;;27.88;;
23594;SDS011;11975;47.674;9.472;2023-02-28T18:22:03;29.10;;;27.38;;
23594;SDS011;11975;47.674;9.472;2023-02-28T18:24:31;27.30;;;25.77;;
23594;SDS011;11975;47.674;9.472;2023-02-28T18:26:57;28.17;;;26.27;;
23594;SDS011;11975;47.674;9.472;2023-02-28T18:29:24;28.50;;;26.80;;
23594;SDS011;11975;47.674;9.472;2023-02-28T18:31:52;29.63;;;27.88;;
23594;SDS011;11975;47.674;9.472;2023-02-28T18:34:19;29.60;;;27.42;;
23594;SDS011;11975;47.674;9.472;2023-02-28T18:36:46;30.08;;;28.23;;
23594;SDS011;11975;47.674;9.472;2023-02-28T18:39:13;27.95;;;26.35;;
23594;SDS011;11975;47.674;9.472;2023-02-28T18:41:39;27.75;;;26.15;;
23594;SDS011;11975;47.674;9.472;2023-02-28T18:44:05;27.17;;;25.60;;
23594;SDS011;11975;47.674;9.472;2023-02-28T18:46:32;27.35;;;25.83;;
23594;SDS011;11975;47.674;9.472;2023-02-28T18:48:58;29.27;;;27.55;;
23594;SDS011;11975;47.674;9.472;2023-02-28T18:51:25;29.17;;;27.38;;
23594;SDS011;11975;47.674;9.472;2023-02-28T18:53:52;28.67;;;26.95;;
23594;SDS011;11975;47.674;9.472;2023-02-28T18:56:18;29.77;;;27.98;;
23594;SDS011;11975;47.674;9.472;2023-02-28T18:58:45;28.65;;;26.95;;
23594;SDS011;11975;47.674;9.472;2023-02-28T19:01:13;29.70;;;27.63;;
23594;SDS011;11975;47.674;9.472;2023-02-28T19:03:47;28.67;;;26.95;;
23594;SDS011;11975;47.674;9.472;2023-02-28T19:06:13;28.42;;;26.73;;
23594;SDS011;11975;47.674;9.472;2023-02-28T19:08:40;27.33;;;25.73;;
23594;SDS011;11975;47.674;9.472;2023-02-28T19:11:07;28.75;;;27.05;;
23594;SDS011;11975;47.674;9.472;2023-02-28T19:13:33;27.92;;;26.33;;
23594;SDS011;11975;47.674;9.472;2023-02-28T19:16:03;27.88;;;26.27;;
23594;SDS011;11975;47.674;9.472;2023-02-28T19:18:29;28.67;;;27.00;;
23594;SDS011;11975;47.674;9.472;2023-02-28T19:20:55;29.48;;;27.70;;
23594;SDS011;11975;47.674;9.472;2023-02-28T19:23:21;28.20;;;26.60;;
23594;SDS011;11975;47.674;9.472;2023-02-28T19:25:47;29.10;;;27.40;;
23594;SDS011;11975;47.674;9.472;2023-02-28T19:28:13;29.23;;;27.30;;
23594;SDS011;11975;47.674;9.472;2023-02-28T19:30:39;28.95;;;27.23;;
23594;SDS011;11975;47.674;9.472;2023-02-28T19:33:05;28.58;;;26.85;;
23594;SDS011;11975;47.674;9.472;2023-02-28T19:35:31;30.35;;;28.55;;
23594;SDS011;11975;47.674;9.472;2023-02-28T19:37:57;28.73;;;27.02;;
23594;SDS011;11975;47.674;9.472;2023-02-28T19:40:23;29.17;;;27.38;;
23594;SDS011;11975;47.674;9.472;2023-02-28T19:42:49;28.33;;;26.67;;
23594;SDS011;11975;47.674;9.472;2023-02-28T19:45:15;29.73;;;27.92;;
23594;SDS011;11975;47.674;9.472;2023-02-28T19:47:41;28.77;;;27.10;;
23594;SDS011;11975;47.674;9.472;2023-02-28T19:50:07;28.85;;;27.20;;
23594;SDS011;11975;47.674;9.472;2023-02-28T19:52:34;30.52;;;28.55;;
23594;SDS011;11975;47.674;9.472;2023-02-28T19:54:59;28.23;;;26.63;;
23594;SDS011;11975;47.674;9.472;2023-02-28T19:57:25;29.67;;;27.88;;
23594;SDS011;11975;47.674;9.472;2023-02-28T19:59:51;29.45;;;27.75;;
23594;SDS011;11975;47.674;9.472;2023-02-28T20:02:18;29.35;;;27.60;;
23594;SDS011;11975;47.674;9.472;2023-02-28T20:04:46;30.60;;;28.65;;
23594;SDS011;11975;47.674;9.472;2023-02-28T20:07:16;29.38;;;27.67;;
23594;SDS011;11975;47.674;9.472;2023-02-28T20:09:47;28.27;;;26.63;;
23594;SDS011;11975;47.674;9.472;2023-02-28T20:12:13;30.67;;;28.73;;
23594;SDS011;11975;47.674;9.472;2023-02-28T20:17:06;29.23;;;27.55;;
23594;SDS011;11975;47.674;9.472;2023-02-28T20:19:32;29.55;;;27.55;;
23594;SDS011;11975;47.674;9.472;2023-02-28T20:21:58;29.15;;;27.30;;
23594;SDS011;11975;47.674;9.472;2023-02-28T20:24:27;28.83;;;27.08;;
23594;SDS011;11975;47.674;9.472;2023-02-28T20:26:54;28.95;;;27.25;;
23594;SDS011;11975;47.674;9.472;2023-02-28T20:29:22;30.05;;;28.25;;
23594;SDS011;11975;47.674;9.472;2023-02-28T20:31:48;29.92;;;28.02;;
23594;SDS011;11975;47.674;9.472;2023-02-28T20:34:14;28.20;;;26.60;;
23594;SDS011;11975;47.674;9.472;2023-02-28T20:36:40;28.63;;;26.92;;
23594;SDS011;11975;47.674;9.472;2023-02-28T20:39:06;28.77;;;27.10;;
23594;SDS011;11975;47.674;9.472;2023-02-28T20:41:32;30.17;;;28.10;;
23594;SDS011;11975;47.674;9.472;2023-02-28T20:43:58;28.40;;;26.80;;
23594;SDS011;11975;47.674;9.472;2023-02-28T20:46:26;28.35;;;26.75;;
23594;SDS011;11975;47.674;9.472;2023-02-28T20:48:52;29.58;;;27.88;;
23594;SDS011;11975;47.674;9.472;2023-02-28T20:51:18;29.33;;;27.52;;
23594;SDS011;11975;47.674;9.472;2023-02-28T20:53:45;31.38;;;29.48;;
23594;SDS011;11975;47.674;9.472;2023-02-28T20:56:12;30.23;;;28.13;;
23594;SDS011;11975;47.674;9.472;2023-02-28T20:58:41;29.27;;;27.58;;
23594;SDS011;11975;47.674;9.472;2023-02-28T21:01:09;29.02;;;27.17;;
23594;SDS011;11975;47.674;9.472;2023-02-28T21:03:44;28.42;;;26.73;;
23594;SDS011;11975;47.674;9.472;2023-02-28T21:06:11;28.42;;;26.83;;
23594;SDS011;11975;47.674;9.472;2023-02-28T21:08:37;29.70;;;27.88;;
23594;SDS011;11975;47.674;9.472;2023-02-28T21:11:07;26.83;;;25.33;;
23594;SDS011;11975;47.674;9.472;2023-02-28T21:13:38;29.58;;;27.60;;
23594;SDS011;11975;47.674;9.472;2023-02-28T21:16:06;27.60;;;25.98;;
23594;SDS011;11975;47.674;9.472;2023-02-28T21:18:33;27.73;;;26.13;;
23594;SDS011;11975;47.674;9.472;2023-02-28T21:21:03;30.67;;;28.77;;
23594;SDS011;11975;47.674;9.472;2023-02-28T21:23:30;28.00;;;26.15;;
23594;SDS011;11975;47.674;9.472;2023-02-28T21:28:28;28.77;;;27.08;;
23594;SDS011;11975;47.674;9.472;2023-02-28T21:30:59;28.83;;;27.13;;
23594;SDS011;11975;47.674;9.472;2023-02-28T21:33:25;30.70;;;28.25;;
23594;SDS011;11975;47.674;9.472;2023-02-28T21:35:51;29.35;;;27.55;;
23594;SDS011;11975;47.674;9.472;2023-02-28T21:38:24;30.42;;;28.63;;
23594;SDS011;11975;47.674;9.472;2023-02-28T21:40:50;28.75;;;27.05;;
23594;SDS011;11975;47.674;9.472;2023-02-28T21:43:17;29.20;;;27.23;;
23594;SDS011;11975;47.674;9.472;2023-02-28T21:45:43;27.45;;;25.85;;
23594;SDS011;11975;47.674;9.472;2023-02-28T21:48:09;30.77;;;28.80;;
23594;SDS011;11975;47.674;9.472;2023-02-28T21:50:35;29.90;;;27.70;;
23594;SDS011;11975;47.674;9.472;2023-02-28T21:53:01;27.90;;;26.23;;
23594;SDS011;11975;47.674;9.472;2023-02-28T21:55:27;28.42;;;26.73;;
23594;SDS011;11975;47.674;9.472;2023-02-28T21:57:53;30.33;;;28.52;;
23594;SDS011;11975;47.674;9.472;2023-02-28T22:00:19;28.13;;;26.42;;
23594;SDS011;11975;47.674;9.472;2023-02-28T22:02:45;30.25;;;27.95;;
23594;SDS011;11975;47.674;9.472;2023-02-28T22:05:11;29.67;;;27.88;;
23594;SDS011;11975;47.674;9.472;2023-02-28T22:07:37;28.92;;;27.23;;
23594;SDS011;11975;47.674;9.472;2023-02-28T22:10:06;29.75;;;27.75;;
23594;SDS011;11975;47.674;9.472;2023-02-28T22:12:33;28.83;;;27.13;;
23594;SDS011;11975;47.674;9.472;2023-02-28T22:14:59;28.10;;;26.50;;
23594;SDS011;11975;47.674;9.472;2023-02-28T22:17:25;27.65;;;26.05;;
23594;SDS011;11975;47.674;9.472;2023-02-28T22:19:51;28.77;;;27.08;;
23594;SDS011;11975;47.674;9.472;2023-02-28T22:22:17;28.08;;;26.40;;
23594;SDS011;11975;47.674;9.472;2023-02-28T22:24:43;30.42;;;28.58;;
23594;SDS011;11975;47.674;9.472;2023-02-28T22:27:09;28.40;;;26.80;;
23594;SDS011;11975;47.674;9.472;2023-02-28T22:29:35;27.85;;;26.25;;
23594;SDS011;11975;47.674;9.472;2023-02-28T22:32:00;28.27;;;26.58;;
23594;SDS011;11975;47.674;9.472;2023-02-28T22:34:26;29.42;;;27.52;;
23594;SDS011;11975;47.674;9.472;2023-02-28T22:36:52;29.67;;;27.98;;
23594;SDS011;11975;47.674;9.472;2023-02-28T22:39:18;28.50;;;26.80;;
23594;SDS011;11975;47.674;9.472;2023-02-28T22:44:12;30.60;;;28.40;;
23594;SDS011;11975;47.674;9.472;2023-02-28T22:46:38;29.00;;;27.30;;
23594;SDS011;11975;47.674;9.472;2023-02-28T22:49:04;28.10;;;26.50;;
23594;SDS011;11975;47.674;9.472;2023-02-28T22:51:31;28.70;;;27.03;;
23594;SDS011;11975;47.674;9.472;2023-02-28T22:53:58;28.65;;;26.95;;
23594;SDS011;11975;47.674;9.472;2023-02-28T22:56:24;31.13;;;29.15;;
23594;SDS011;11975;47.674;9.472;2023-02-28T22:58:53;28.45;;;26.60;;
23594;SDS011;11975;47.674;9.472;2023-02-28T23:01:22;29.38;;;27.08;;
23594;SDS011;11975;47.674;9.472;2023-02-28T23:03:49;29.38;;;27.60;;
